ADDS METAR Data INFO
IDs: Format: Raw Decoded Include TAF

Data at: 0758 UTC 24 May 2018

METAR for:KHSE (Hatteras/Mitchell Fl, NC, US)
Text:KHSE 240751Z AUTO VRB04KT 7SM BKN013 22/21 A3007 RMK AO2 SLP183 T02170211
Temperature: 21.7°C ( 71°F)
Dewpoint: 21.1°C ( 70°F) [RH = 96%]
Pressure (altimeter):30.07 inches Hg (1018.4 mb) [Sea level pressure: 1018.3 mb]
Winds:variable direction winds at 5 MPH (4 knots; 2.1 m/s)
Visibility: 7 sm ( 11 km)
Ceiling:1300 feet AGL
Clouds: broken clouds at 1300 feet AGL
QC Flag:automated observation with no human augmentation
Text:KHSE 240746Z AUTO 26003KT 8SM BKN014 BKN018 22/21 A3007 RMK AO2
Temperature: 22.0°C ( 72°F)
Dewpoint: 21.0°C ( 70°F) [RH = 94%]
Pressure (altimeter):30.07 inches Hg (1018.4 mb)
Winds:from the W (260 degrees) at 3 MPH (3 knots; 1.5 m/s)
Visibility: 8 sm ( 13 km)
Ceiling:1400 feet AGL
Clouds: broken clouds at 1400 feet AGL, broken clouds at 1800 feet AGL
QC Flag:automated observation with no human augmentation
Text:KHSE 240718Z AUTO 28006KT 10SM FEW012 FEW017 FEW024 22/21 A3007 RMK AO2 T02170211
Temperature: 21.7°C ( 71°F)
Dewpoint: 21.1°C ( 70°F) [RH = 96%]
Pressure (altimeter):30.07 inches Hg (1018.4 mb)
Winds:from the W (280 degrees) at 7 MPH (6 knots; 3.1 m/s)
Visibility:10 or more sm (16+ km)
Ceiling:at least 12,000 feet AGL
Clouds: few clouds at 1200 feet AGL, few clouds at 1700 feet AGL, few clouds at 2400 feet AGL
QC Flag:automated observation with no human augmentation
Text:KHSE 240651Z AUTO 27005KT 10SM OVC016 22/21 A3007 RMK AO2 SLP183 T02170211
Temperature: 21.7°C ( 71°F)
Dewpoint: 21.1°C ( 70°F) [RH = 96%]
Pressure (altimeter):30.07 inches Hg (1018.4 mb) [Sea level pressure: 1018.3 mb]
Winds:from the W (270 degrees) at 6 MPH (5 knots; 2.6 m/s)
Visibility:10 or more sm (16+ km)
Ceiling:1600 feet AGL
Clouds: overcast cloud deck at 1600 feet AGL
QC Flag:automated observation with no human augmentation
Text:KHSE 240647Z AUTO 29005KT 10SM OVC016 22/21 A3007 RMK AO2
Temperature: 22.0°C ( 72°F)
Dewpoint: 21.0°C ( 70°F) [RH = 94%]
Pressure (altimeter):30.07 inches Hg (1018.4 mb)
Winds:from the WNW (290 degrees) at 6 MPH (5 knots; 2.6 m/s)
Visibility:10 or more sm (16+ km)
Ceiling:1600 feet AGL
Clouds: overcast cloud deck at 1600 feet AGL
QC Flag:automated observation with no human augmentation
Text:KHSE 240631Z AUTO 29005KT 10SM BKN014 22/21 A3007 RMK AO2 T02170211
Temperature: 21.7°C ( 71°F)
Dewpoint: 21.1°C ( 70°F) [RH = 96%]
Pressure (altimeter):30.07 inches Hg (1018.4 mb)
Winds:from the WNW (290 degrees) at 6 MPH (5 knots; 2.6 m/s)
Visibility:10 or more sm (16+ km)
Ceiling:1400 feet AGL
Clouds: broken clouds at 1400 feet AGL
QC Flag:automated observation with no human augmentation
Text:KHSE 240551Z AUTO 27005KT 10SM CLR 21/20 A3008 RMK AO2 SLP185 60192 T02060200 10239 20194 53007
Temperature: 20.6°C ( 69°F)
Dewpoint: 20.0°C ( 68°F) [RH = 96%]
Pressure (altimeter):30.08 inches Hg (1018.7 mb) [Sea level pressure: 1018.5 mb]
Winds:from the W (270 degrees) at 6 MPH (5 knots; 2.6 m/s)
Visibility:10 or more sm (16+ km)
Ceiling:at least 12,000 feet AGL
Clouds:sky clear below 12,000 feet AGL
QC Flag:automated observation with no human augmentation
Text:KHSE 240451Z AUTO 25006KT 10SM CLR 21/21 A3007 RMK AO2 SLP183 T02060206 402720194
Temperature: 20.6°C ( 69°F)
Dewpoint: 20.6°C ( 69°F) [RH = 100%]
Pressure (altimeter):30.07 inches Hg (1018.4 mb) [Sea level pressure: 1018.3 mb]
Winds:from the WSW (250 degrees) at 7 MPH (6 knots; 3.1 m/s)
Visibility:10 or more sm (16+ km)
Ceiling:at least 12,000 feet AGL
Clouds:sky clear below 12,000 feet AGL
QC Flag:automated observation with no human augmentation
Text:KHSE 240415Z AUTO 24005KT 8SM FEW007 21/21 A3007 RMK AO2 LTG DSNT SW T02060206
Temperature: 20.6°C ( 69°F)
Dewpoint: 20.6°C ( 69°F) [RH = 100%]
Pressure (altimeter):30.07 inches Hg (1018.4 mb)
Winds:from the WSW (240 degrees) at 6 MPH (5 knots; 2.6 m/s)
Visibility: 8 sm ( 13 km)
Ceiling:at least 12,000 feet AGL
Clouds: few clouds at 700 feet AGL
QC Flag:automated observation with no human augmentation
Text:KHSE 240351Z AUTO 23007KT 10SM FEW110 21/20 A3006 RMK AO2 RAE44 SLP178 P0002 T02060200
Temperature: 20.6°C ( 69°F)
Dewpoint: 20.0°C ( 68°F) [RH = 96%]
Pressure (altimeter):30.06 inches Hg (1018.0 mb) [Sea level pressure: 1017.8 mb]
Winds:from the SW (230 degrees) at 8 MPH (7 knots; 3.6 m/s)
Visibility:10 or more sm (16+ km)
Ceiling:at least 12,000 feet AGL
Clouds: few clouds at 11000 feet AGL
QC Flag:automated observation with no human augmentation
Text:KHSE 240251Z AUTO 17012KT 6SM RA BR BKN100 20/20 A3006 RMK AO2 LTG DSNT SE-SW SLP178 P0009 60190 T02000200 50014
Temperature: 20.0°C ( 68°F)
Dewpoint: 20.0°C ( 68°F) [RH = 100%]
Pressure (altimeter):30.06 inches Hg (1018.0 mb) [Sea level pressure: 1017.8 mb]
Winds:from the S (170 degrees) at 14 MPH (12 knots; 6.2 m/s)
Visibility: 6 sm ( 10 km)
Ceiling:10000 feet AGL
Clouds: broken clouds at 10000 feet AGL
Weather:RA BR (moderate rain, mist)
QC Flag:automated observation with no human augmentation
Text:KHSE 240236Z AUTO 18012KT 4SM RA BR FEW090 BKN110 20/20 A3008 RMK AO2 LTG DSNT SE-SW P0006 T02000200
Temperature: 20.0°C ( 68°F)
Dewpoint: 20.0°C ( 68°F) [RH = 100%]
Pressure (altimeter):30.08 inches Hg (1018.7 mb)
Winds:from the S (180 degrees) at 14 MPH (12 knots; 6.2 m/s)
Visibility: 4 sm ( 6 km)
Ceiling:11000 feet AGL
Clouds: few clouds at 9000 feet AGL, broken clouds at 11000 feet AGL
Weather:RA BR (moderate rain, mist)
QC Flag:automated observation with no human augmentation
Text:KHSE 240151Z AUTO 16008G18KT 3SM VCTS +RA BR BKN030 BKN044 OVC090 20/19 A3006 RMK AO2 LTG DSNT ALQDS RAB06 TSB0055E10B11E50 SLP180 P0181 T02000194
Temperature: 20.0°C ( 68°F)
Dewpoint: 19.4°C ( 67°F) [RH = 96%]
Pressure (altimeter):30.06 inches Hg (1018.0 mb) [Sea level pressure: 1018.0 mb]
Winds:from the SSE (160 degrees) at 9 MPH (8 knots; 4.1 m/s) gusting to 21 MPH (18 knots; 9.3 m/s)
Visibility: 3 sm ( 5 km)
Ceiling:3000 feet AGL
Clouds: broken clouds at 3000 feet AGL, broken clouds at 4400 feet AGL, overcast cloud deck at 9000 feet AGL
Weather:VCTS +RA BR (thunderstorm in vicinity, heavy rain, mist)
QC Flag:automated observation with no human augmentation
Text:KHSE 240148Z AUTO 15007G18KT 3SM +TSRA BR BKN030 BKN044 OVC085 20/19 A3007 RMK AO2 LTG DSNT ALQDS RAB06 TSB0055E10B11 PRESFR P0179
Temperature: 20.0°C ( 68°F)
Dewpoint: 19.0°C ( 66°F) [RH = 94%]
Pressure (altimeter):30.07 inches Hg (1018.4 mb)
Winds:from the SSE (150 degrees) at 8 MPH (7 knots; 3.6 m/s) gusting to 21 MPH (18 knots; 9.3 m/s)
Visibility: 3 sm ( 5 km)
Ceiling:3000 feet AGL
Clouds: broken clouds at 3000 feet AGL, broken clouds at 4400 feet AGL, overcast cloud deck at 8500 feet AGL
Weather:+TSRA BR (heavy rain associated with thunderstorm(s), mist)
QC Flag:automated observation with no human augmentation
Text:KHSE 240144Z AUTO 15013G18KT 2SM TSRA BR BKN027 BKN034 OVC044 20/20 A3007 RMK AO2 LTG DSNT ALQDS RAB06 TSB0055E10B11 PRESFR P0177 T02000200
Temperature: 20.0°C ( 68°F)
Dewpoint: 20.0°C ( 68°F) [RH = 100%]
Pressure (altimeter):30.07 inches Hg (1018.4 mb)
Winds:from the SSE (150 degrees) at 15 MPH (13 knots; 6.7 m/s) gusting to 21 MPH (18 knots; 9.3 m/s)
Visibility: 2.00 sm ( 3.22 km)
Ceiling:2700 feet AGL
Clouds: broken clouds at 2700 feet AGL, broken clouds at 3400 feet AGL, overcast cloud deck at 4400 feet AGL
Weather:TSRA BR (rain associated with thunderstorm(s), mist)
QC Flag:automated observation with no human augmentation
Text:KHSE 240141Z AUTO 15010KT 1 1/4SM +TSRA BR BKN017 BKN034 OVC044 20/20 A3008 RMK AO2 LTG DSNT E AND S AND W RAB06 TSB0055E10B11 P0176 T02000200
Temperature: 20.0°C ( 68°F)
Dewpoint: 20.0°C ( 68°F) [RH = 100%]
Pressure (altimeter):30.08 inches Hg (1018.7 mb)
Winds:from the SSE (150 degrees) at 12 MPH (10 knots; 5.1 m/s)
Visibility: 1.25 sm ( 2.01 km)
Ceiling:1700 feet AGL
Clouds: broken clouds at 1700 feet AGL, broken clouds at 3400 feet AGL, overcast cloud deck at 4400 feet AGL
Weather:+TSRA BR (heavy rain associated with thunderstorm(s), mist)
QC Flag:automated observation with no human augmentation
Text:KHSE 240116Z AUTO 05011G18KT 3/4SM +TSRA BR FEW009 BKN014 OVC026 20/19 A3008 RMK AO2 LTG DSNT ALQDS RAB06 TSB0055E10B11 P0033 T02000194
Temperature: 20.0°C ( 68°F)
Dewpoint: 19.4°C ( 67°F) [RH = 96%]
Pressure (altimeter):30.08 inches Hg (1018.7 mb)
Winds:from the NE (50 degrees) at 13 MPH (11 knots; 5.7 m/s) gusting to 21 MPH (18 knots; 9.3 m/s)
Visibility: 0.75 sm ( 1.21 km)
Ceiling:1400 feet AGL
Clouds: few clouds at 900 feet AGL, broken clouds at 1400 feet AGL, overcast cloud deck at 2600 feet AGL
Weather:+TSRA BR (heavy rain associated with thunderstorm(s), mist)
QC Flag:automated observation with no human augmentation
Text:KHSE 240113Z AUTO 05011G18KT 1 1/4SM +TSRA BR FEW008 BKN019 OVC026 21/19 A3009 RMK AO2 LTG DSNT ALQDS RAB06 TSB0055E10B11 P0014 T02060194
Temperature: 20.6°C ( 69°F)
Dewpoint: 19.4°C ( 67°F) [RH = 93%]
Pressure (altimeter):30.09 inches Hg (1019.0 mb)
Winds:from the NE (50 degrees) at 13 MPH (11 knots; 5.7 m/s) gusting to 21 MPH (18 knots; 9.3 m/s)
Visibility: 1.25 sm ( 2.01 km)
Ceiling:1900 feet AGL
Clouds: few clouds at 800 feet AGL, broken clouds at 1900 feet AGL, overcast cloud deck at 2600 feet AGL
Weather:+TSRA BR (heavy rain associated with thunderstorm(s), mist)
QC Flag:automated observation with no human augmentation
Text:KHSE 240110Z AUTO 03011G18KT 320V060 2 1/2SM VCTS RA FEW008 BKN024 OVC049 22/19 A3010 RMK AO2 LTG DSNT W-NE RAB06 TSB0055E10 PRESRR P0001 T02170189
Temperature: 21.7°C ( 71°F)
Dewpoint: 18.9°C ( 66°F) [RH = 84%]
Pressure (altimeter):30.10 inches Hg (1019.4 mb)
Winds:from the NNE (30 degrees) at 13 MPH (11 knots; 5.7 m/s) gusting to 21 MPH (18 knots; 9.3 m/s)
Visibility: 2.50 sm ( 4.02 km)
Ceiling:2400 feet AGL
Clouds: few clouds at 800 feet AGL, broken clouds at 2400 feet AGL, overcast cloud deck at 4900 feet AGL
Weather:VCTS RA (thunderstorm in vicinity, moderate rain)
QC Flag:automated observation with no human augmentation
Text:KHSE 240057Z AUTO 09010G17KT 060V120 10SM TS SCT012 BKN023 OVC100 22/19 A3006 RMK AO2 LTG DSNT ALQDS TSB55 T02170189
Temperature: 21.7°C ( 71°F)
Dewpoint: 18.9°C ( 66°F) [RH = 84%]
Pressure (altimeter):30.06 inches Hg (1018.0 mb)
Winds:from the E (90 degrees) at 12 MPH (10 knots; 5.1 m/s) gusting to 20 MPH (17 knots; 8.7 m/s)
Visibility:10 or more sm (16+ km)
Ceiling:2300 feet AGL
Clouds: scattered clouds at 1200 feet AGL, broken clouds at 2300 feet AGL, overcast cloud deck at 10000 feet AGL
Weather:TS (thunderstorm)
QC Flag:automated observation with no human augmentation
Text:KHSE 240051Z AUTO 08011G17KT 8SM VCTS FEW008 BKN049 OVC100 23/22 A3006 RMK AO2 LTG DSNT ALQDS SLP179 T02330217
Temperature: 23.3°C ( 74°F)
Dewpoint: 21.7°C ( 71°F) [RH = 91%]
Pressure (altimeter):30.06 inches Hg (1018.0 mb) [Sea level pressure: 1017.9 mb]
Winds:from the E (80 degrees) at 13 MPH (11 knots; 5.7 m/s) gusting to 20 MPH (17 knots; 8.7 m/s)
Visibility: 8 sm ( 13 km)
Ceiling:4900 feet AGL
Clouds: few clouds at 800 feet AGL, broken clouds at 4900 feet AGL, overcast cloud deck at 10000 feet AGL
Weather:VCTS (thunderstorm in vicinity)
QC Flag:automated observation with no human augmentation
Text:KHSE 240044Z AUTO VRB03KT 7SM VCTS FEW049 BKN085 OVC100 23/22 A3005 RMK AO2 LTG DSNT ALQDS PRESRR T02330222
Temperature: 23.3°C ( 74°F)
Dewpoint: 22.2°C ( 72°F) [RH = 94%]
Pressure (altimeter):30.05 inches Hg (1017.7 mb)
Winds:variable direction winds at 3 MPH (3 knots; 1.5 m/s)
Visibility: 7 sm ( 11 km)
Ceiling:8500 feet AGL
Clouds: few clouds at 4900 feet AGL, broken clouds at 8500 feet AGL, overcast cloud deck at 10000 feet AGL
Weather:VCTS (thunderstorm in vicinity)
QC Flag:automated observation with no human augmentation
Text:KHSE 232351Z AUTO 23012G18KT 7SM BKN100 24/22 A3002 RMK AO2 LTG DSNT NW-E SLP164 T02390222 10272 20239 53002
Temperature: 23.9°C ( 75°F)
Dewpoint: 22.2°C ( 72°F) [RH = 90%]
Pressure (altimeter):30.02 inches Hg (1016.7 mb) [Sea level pressure: 1016.4 mb]
Winds:from the SW (230 degrees) at 14 MPH (12 knots; 6.2 m/s) gusting to 21 MPH (18 knots; 9.3 m/s)
Visibility: 7 sm ( 11 km)
Ceiling:10000 feet AGL
Clouds: broken clouds at 10000 feet AGL
QC Flag:automated observation with no human augmentation
Text:KHSE 232251Z AUTO 23013G21KT 8SM CLR 24/22 A3000 RMK AO2 LTG DSNT NW-NE SLP158 T02440222
Temperature: 24.4°C ( 76°F)
Dewpoint: 22.2°C ( 72°F) [RH = 88%]
Pressure (altimeter):30.00 inches Hg (1016.0 mb) [Sea level pressure: 1015.8 mb]
Winds:from the SW (230 degrees) at 15 MPH (13 knots; 6.7 m/s) gusting to 24 MPH (21 knots; 10.8 m/s)
Visibility: 8 sm ( 13 km)
Ceiling:at least 12,000 feet AGL
Clouds:sky clear below 12,000 feet AGL
QC Flag:automated observation with no human augmentation
Text:KHSE 232151Z AUTO 24014G20KT 8SM SCT120 24/22 A3001 RMK AO2 SLP162 T02440222
Temperature: 24.4°C ( 76°F)
Dewpoint: 22.2°C ( 72°F) [RH = 88%]
Pressure (altimeter):30.01 inches Hg (1016.3 mb) [Sea level pressure: 1016.2 mb]
Winds:from the WSW (240 degrees) at 16 MPH (14 knots; 7.2 m/s) gusting to 23 MPH (20 knots; 10.3 m/s)
Visibility: 8 sm ( 13 km)
Ceiling:at least 12,000 feet AGL
Clouds: scattered clouds at 12000 feet AGL
QC Flag:automated observation with no human augmentation
Text:KHSE 232051Z AUTO 23015G22KT 9SM FEW042 26/23 A3001 RMK AO2 SLP163 T02560228 56012
Temperature: 25.6°C ( 78°F)
Dewpoint: 22.8°C ( 73°F) [RH = 85%]
Pressure (altimeter):30.01 inches Hg (1016.3 mb) [Sea level pressure: 1016.3 mb]
Winds:from the SW (230 degrees) at 17 MPH (15 knots; 7.7 m/s) gusting to 25 MPH (22 knots; 11.3 m/s)
Visibility: 9 sm ( 14 km)
Ceiling:at least 12,000 feet AGL
Clouds: few clouds at 4200 feet AGL
QC Flag:automated observation with no human augmentation
Text:KHSE 231951Z AUTO 22016G22KT 10SM CLR 26/23 A3002 RMK AO2 SLP164 T02610228
Temperature: 26.1°C ( 79°F)
Dewpoint: 22.8°C ( 73°F) [RH = 82%]
Pressure (altimeter):30.02 inches Hg (1016.7 mb) [Sea level pressure: 1016.4 mb]
Winds:from the SW (220 degrees) at 18 MPH (16 knots; 8.2 m/s) gusting to 25 MPH (22 knots; 11.3 m/s)
Visibility:10 or more sm (16+ km)
Ceiling:at least 12,000 feet AGL
Clouds:sky clear below 12,000 feet AGL
QC Flag:automated observation with no human augmentation
Text:KHSE 231851Z AUTO 22013G21KT 9SM FEW120 26/23 A3004 RMK AO2 SLP171 T02560228
Temperature: 25.6°C ( 78°F)
Dewpoint: 22.8°C ( 73°F) [RH = 85%]
Pressure (altimeter):30.04 inches Hg (1017.4 mb) [Sea level pressure: 1017.1 mb]
Winds:from the SW (220 degrees) at 15 MPH (13 knots; 6.7 m/s) gusting to 24 MPH (21 knots; 10.8 m/s)
Visibility: 9 sm ( 14 km)
Ceiling:at least 12,000 feet AGL
Clouds: few clouds at 12000 feet AGL
QC Flag:automated observation with no human augmentation
Text:KHSE 231751Z AUTO 24011G19KT 10SM CLR 27/23 A3005 RMK AO2 SLP175 T02670228 10267 20239 58009
Temperature: 26.7°C ( 80°F)
Dewpoint: 22.8°C ( 73°F) [RH = 79%]
Pressure (altimeter):30.05 inches Hg (1017.7 mb) [Sea level pressure: 1017.5 mb]
Winds:from the WSW (240 degrees) at 13 MPH (11 knots; 5.7 m/s) gusting to 22 MPH (19 knots; 9.8 m/s)
Visibility:10 or more sm (16+ km)
Ceiling:at least 12,000 feet AGL
Clouds:sky clear below 12,000 feet AGL
QC Flag:automated observation with no human augmentation
Text:KHSE 231651Z AUTO 24012G19KT 10SM CLR 26/23 A3006 RMK AO2 SLP179 T02610228
Temperature: 26.1°C ( 79°F)
Dewpoint: 22.8°C ( 73°F) [RH = 82%]
Pressure (altimeter):30.06 inches Hg (1018.0 mb) [Sea level pressure: 1017.9 mb]
Winds:from the WSW (240 degrees) at 14 MPH (12 knots; 6.2 m/s) gusting to 22 MPH (19 knots; 9.8 m/s)
Visibility:10 or more sm (16+ km)
Ceiling:at least 12,000 feet AGL
Clouds:sky clear below 12,000 feet AGL
QC Flag:automated observation with no human augmentation
Text:KHSE 231551Z AUTO 24012KT 10SM CLR 27/23 A3007 RMK AO2 SLP182 T02670228
Temperature: 26.7°C ( 80°F)
Dewpoint: 22.8°C ( 73°F) [RH = 79%]
Pressure (altimeter):30.07 inches Hg (1018.4 mb) [Sea level pressure: 1018.2 mb]
Winds:from the WSW (240 degrees) at 14 MPH (12 knots; 6.2 m/s)
Visibility:10 or more sm (16+ km)
Ceiling:at least 12,000 feet AGL
Clouds:sky clear below 12,000 feet AGL
QC Flag:automated observation with no human augmentation
Text:KHSE 231451Z AUTO 24011KT 10SM CLR 26/22 A3008 RMK AO2 SLP184 T02560222 50002
Temperature: 25.6°C ( 78°F)
Dewpoint: 22.2°C ( 72°F) [RH = 82%]
Pressure (altimeter):30.08 inches Hg (1018.7 mb) [Sea level pressure: 1018.4 mb]
Winds:from the WSW (240 degrees) at 13 MPH (11 knots; 5.7 m/s)
Visibility:10 or more sm (16+ km)
Ceiling:at least 12,000 feet AGL
Clouds:sky clear below 12,000 feet AGL
QC Flag:automated observation with no human augmentation
Text:KHSE 231351Z AUTO 24009G17KT 10SM FEW015 26/22 A3008 RMK AO2 SLP184 T02560222
Temperature: 25.6°C ( 78°F)
Dewpoint: 22.2°C ( 72°F) [RH = 82%]
Pressure (altimeter):30.08 inches Hg (1018.7 mb) [Sea level pressure: 1018.4 mb]
Winds:from the WSW (240 degrees) at 10 MPH (9 knots; 4.6 m/s) gusting to 20 MPH (17 knots; 8.7 m/s)
Visibility:10 or more sm (16+ km)
Ceiling:at least 12,000 feet AGL
Clouds: few clouds at 1500 feet AGL
QC Flag:automated observation with no human augmentation
Text:KHSE 231251Z AUTO 25008G17KT 10SM CLR 24/22 A3008 RMK AO2 SLP184 T02440222
Temperature: 24.4°C ( 76°F)
Dewpoint: 22.2°C ( 72°F) [RH = 88%]
Pressure (altimeter):30.08 inches Hg (1018.7 mb) [Sea level pressure: 1018.4 mb]
Winds:from the WSW (250 degrees) at 9 MPH (8 knots; 4.1 m/s) gusting to 20 MPH (17 knots; 8.7 m/s)
Visibility:10 or more sm (16+ km)
Ceiling:at least 12,000 feet AGL
Clouds:sky clear below 12,000 feet AGL
QC Flag:automated observation with no human augmentation
Text:KHSE 231151Z AUTO 24009KT 9SM CLR 23/22 A3007 RMK AO2 SLP182 T02330222 10233 20222 53005
Temperature: 23.3°C ( 74°F)
Dewpoint: 22.2°C ( 72°F) [RH = 94%]
Pressure (altimeter):30.07 inches Hg (1018.4 mb) [Sea level pressure: 1018.2 mb]
Winds:from the WSW (240 degrees) at 10 MPH (9 knots; 4.6 m/s)
Visibility: 9 sm ( 14 km)
Ceiling:at least 12,000 feet AGL
Clouds:sky clear below 12,000 feet AGL
QC Flag:automated observation with no human augmentation
Text:KHSE 231051Z AUTO 24011KT 8SM CLR 23/22 A3007 RMK AO2 SLP181 T02280217
Temperature: 22.8°C ( 73°F)
Dewpoint: 21.7°C ( 71°F) [RH = 94%]
Pressure (altimeter):30.07 inches Hg (1018.4 mb) [Sea level pressure: 1018.1 mb]
Winds:from the WSW (240 degrees) at 13 MPH (11 knots; 5.7 m/s)
Visibility: 8 sm ( 13 km)
Ceiling:at least 12,000 feet AGL
Clouds:sky clear below 12,000 feet AGL
QC Flag:automated observation with no human augmentation
Text:KHSE 230951Z AUTO 25008KT 7SM CLR 22/22 A3006 RMK AO2 SLP178 T02220217
Temperature: 22.2°C ( 72°F)
Dewpoint: 21.7°C ( 71°F) [RH = 97%]
Pressure (altimeter):30.06 inches Hg (1018.0 mb) [Sea level pressure: 1017.8 mb]
Winds:from the WSW (250 degrees) at 9 MPH (8 knots; 4.1 m/s)
Visibility: 7 sm ( 11 km)
Ceiling:at least 12,000 feet AGL
Clouds:sky clear below 12,000 feet AGL
QC Flag:automated observation with no human augmentation
Text:KHSE 230851Z AUTO 24008KT 8SM CLR 23/22 A3006 RMK AO2 SLP177 T02280217 55005
Temperature: 22.8°C ( 73°F)
Dewpoint: 21.7°C ( 71°F) [RH = 94%]
Pressure (altimeter):30.06 inches Hg (1018.0 mb) [Sea level pressure: 1017.7 mb]
Winds:from the WSW (240 degrees) at 9 MPH (8 knots; 4.1 m/s)
Visibility: 8 sm ( 13 km)
Ceiling:at least 12,000 feet AGL
Clouds:sky clear below 12,000 feet AGL
QC Flag:automated observation with no human augmentation
Text:KHSE 230751Z AUTO 24010KT 9SM CLR 23/22 A3005 RMK AO2 SLP176 T02280217
Temperature: 22.8°C ( 73°F)
Dewpoint: 21.7°C ( 71°F) [RH = 94%]
Pressure (altimeter):30.05 inches Hg (1017.7 mb) [Sea level pressure: 1017.6 mb]
Winds:from the WSW (240 degrees) at 12 MPH (10 knots; 5.1 m/s)
Visibility: 9 sm ( 14 km)
Ceiling:at least 12,000 feet AGL
Clouds:sky clear below 12,000 feet AGL
QC Flag:automated observation with no human augmentation
Text:KHSE 230651Z AUTO 24011KT 9SM CLR 23/22 A3005 RMK AO2 SLP175 T02280217
Temperature: 22.8°C ( 73°F)
Dewpoint: 21.7°C ( 71°F) [RH = 94%]
Pressure (altimeter):30.05 inches Hg (1017.7 mb) [Sea level pressure: 1017.5 mb]
Winds:from the WSW (240 degrees) at 13 MPH (11 knots; 5.7 m/s)
Visibility: 9 sm ( 14 km)
Ceiling:at least 12,000 feet AGL
Clouds:sky clear below 12,000 feet AGL
QC Flag:automated observation with no human augmentation
Text:KHSE 230551Z AUTO 23011KT 10SM CLR 23/22 A3007 RMK AO2 SLP182 T02280217 10239 20228 58013
Temperature: 22.8°C ( 73°F)
Dewpoint: 21.7°C ( 71°F) [RH = 94%]
Pressure (altimeter):30.07 inches Hg (1018.4 mb) [Sea level pressure: 1018.2 mb]
Winds:from the SW (230 degrees) at 13 MPH (11 knots; 5.7 m/s)
Visibility:10 or more sm (16+ km)
Ceiling:at least 12,000 feet AGL
Clouds:sky clear below 12,000 feet AGL
QC Flag:automated observation with no human augmentation
Text:KHSE 230451Z AUTO 23010G19KT 10SM CLR 23/22 A3009 RMK AO2 SLP188 T02280217 402720228
Temperature: 22.8°C ( 73°F)
Dewpoint: 21.7°C ( 71°F) [RH = 94%]
Pressure (altimeter):30.09 inches Hg (1019.0 mb) [Sea level pressure: 1018.8 mb]
Winds:from the SW (230 degrees) at 12 MPH (10 knots; 5.1 m/s) gusting to 22 MPH (19 knots; 9.8 m/s)
Visibility:10 or more sm (16+ km)
Ceiling:at least 12,000 feet AGL
Clouds:sky clear below 12,000 feet AGL
QC Flag:automated observation with no human augmentation
Text:KHSE 230351Z AUTO 23010KT 10SM CLR 23/22 A3010 RMK AO2 SLP192 T02280217
Temperature: 22.8°C ( 73°F)
Dewpoint: 21.7°C ( 71°F) [RH = 94%]
Pressure (altimeter):30.10 inches Hg (1019.4 mb) [Sea level pressure: 1019.2 mb]
Winds:from the SW (230 degrees) at 12 MPH (10 knots; 5.1 m/s)
Visibility:10 or more sm (16+ km)
Ceiling:at least 12,000 feet AGL
Clouds:sky clear below 12,000 feet AGL
QC Flag:automated observation with no human augmentation
Text:KHSE 230251Z AUTO 23008KT 10SM CLR 23/22 A3011 RMK AO2 SLP195 T02280217 53008
Temperature: 22.8°C ( 73°F)
Dewpoint: 21.7°C ( 71°F) [RH = 94%]
Pressure (altimeter):30.11 inches Hg (1019.7 mb) [Sea level pressure: 1019.5 mb]
Winds:from the SW (230 degrees) at 9 MPH (8 knots; 4.1 m/s)
Visibility:10 or more sm (16+ km)
Ceiling:at least 12,000 feet AGL
Clouds:sky clear below 12,000 feet AGL
QC Flag:automated observation with no human augmentation
Text:KHSE 230151Z AUTO 23008KT 10SM CLR 23/22 A3011 RMK AO2 SLP194 T02330222
Temperature: 23.3°C ( 74°F)
Dewpoint: 22.2°C ( 72°F) [RH = 94%]
Pressure (altimeter):30.11 inches Hg (1019.7 mb) [Sea level pressure: 1019.4 mb]
Winds:from the SW (230 degrees) at 9 MPH (8 knots; 4.1 m/s)
Visibility:10 or more sm (16+ km)
Ceiling:at least 12,000 feet AGL
Clouds:sky clear below 12,000 feet AGL
QC Flag:automated observation with no human augmentation
Text:KHSE 230051Z AUTO 22008G15KT 10SM CLR 23/22 A3008 RMK AO2 SLP185 T02330222
Temperature: 23.3°C ( 74°F)
Dewpoint: 22.2°C ( 72°F) [RH = 94%]
Pressure (altimeter):30.08 inches Hg (1018.7 mb) [Sea level pressure: 1018.5 mb]
Winds:from the SW (220 degrees) at 9 MPH (8 knots; 4.1 m/s) gusting to 17 MPH (15 knots; 7.7 m/s)
Visibility:10 or more sm (16+ km)
Ceiling:at least 12,000 feet AGL
Clouds:sky clear below 12,000 feet AGL
QC Flag:automated observation with no human augmentation
Text:KHSE 222351Z AUTO 22009G17KT 10SM CLR 24/22 A3008 RMK AO2 SLP187 T02390222 10272 20239 57004
Temperature: 23.9°C ( 75°F)
Dewpoint: 22.2°C ( 72°F) [RH = 90%]
Pressure (altimeter):30.08 inches Hg (1018.7 mb) [Sea level pressure: 1018.7 mb]
Winds:from the SW (220 degrees) at 10 MPH (9 knots; 4.6 m/s) gusting to 20 MPH (17 knots; 8.7 m/s)
Visibility:10 or more sm (16+ km)
Ceiling:at least 12,000 feet AGL
Clouds:sky clear below 12,000 feet AGL
QC Flag:automated observation with no human augmentation
Text:KHSE 222251Z AUTO 23010G16KT 10SM CLR 24/22 A3009 RMK AO2 SLP188 T02440222
Temperature: 24.4°C ( 76°F)
Dewpoint: 22.2°C ( 72°F) [RH = 88%]
Pressure (altimeter):30.09 inches Hg (1019.0 mb) [Sea level pressure: 1018.8 mb]
Winds:from the SW (230 degrees) at 12 MPH (10 knots; 5.1 m/s) gusting to 18 MPH (16 knots; 8.2 m/s)
Visibility:10 or more sm (16+ km)
Ceiling:at least 12,000 feet AGL
Clouds:sky clear below 12,000 feet AGL
QC Flag:automated observation with no human augmentation
Text:KHSE 222151Z AUTO 23012KT 10SM CLR 24/22 A3009 RMK AO2 SLP189 T02440222
Temperature: 24.4°C ( 76°F)
Dewpoint: 22.2°C ( 72°F) [RH = 88%]
Pressure (altimeter):30.09 inches Hg (1019.0 mb) [Sea level pressure: 1018.9 mb]
Winds:from the SW (230 degrees) at 14 MPH (12 knots; 6.2 m/s)
Visibility:10 or more sm (16+ km)
Ceiling:at least 12,000 feet AGL
Clouds:sky clear below 12,000 feet AGL
QC Flag:automated observation with no human augmentation
Text:KHSE 222051Z AUTO 22011KT 10SM CLR 27/23 A3009 RMK AO2 SLP190 T02670228 56012
Temperature: 26.7°C ( 80°F)
Dewpoint: 22.8°C ( 73°F) [RH = 79%]
Pressure (altimeter):30.09 inches Hg (1019.0 mb) [Sea level pressure: 1019.0 mb]
Winds:from the SW (220 degrees) at 13 MPH (11 knots; 5.7 m/s)
Visibility:10 or more sm (16+ km)
Ceiling:at least 12,000 feet AGL
Clouds:sky clear below 12,000 feet AGL
QC Flag:automated observation with no human augmentation